createdAt,value
2023-03-19T00:00:09.321Z,55.25
2023-03-19T00:03:26.535Z,57.03
2023-03-19T00:06:42.868Z,53.05
2023-03-19T00:09:59.006Z,61.83
2023-03-19T00:13:15.603Z,56.65
2023-03-19T00:16:32.162Z,56.20
2023-03-19T00:19:48.498Z,55.38
2023-03-19T00:26:21.610Z,57.25
2023-03-19T00:29:38.813Z,56.35
2023-03-19T00:32:55.239Z,55.73
2023-03-19T00:36:13.752Z,57.10
2023-03-19T00:39:30.368Z,57.33
2023-03-19T00:42:46.932Z,53.48
2023-03-19T00:46:04.075Z,54.55
2023-03-19T00:49:21.680Z,54.58
2023-03-19T00:52:37.882Z,56.98
2023-03-19T00:55:54.004Z,51.55
2023-03-19T00:59:10.070Z,53.63
2023-03-19T01:02:26.490Z,54.40
2023-03-19T01:05:44.177Z,51.95
2023-03-19T01:09:00.593Z,52.38
2023-03-19T01:12:20.218Z,60.18
2023-03-19T01:15:36.930Z,52.98
2023-03-19T01:18:53.364Z,54.40
2023-03-19T01:22:10.342Z,54.30
2023-03-19T01:25:28.210Z,58.63
2023-03-19T01:28:48.928Z,51.08
2023-03-19T01:32:06.842Z,52.95
2023-03-19T01:35:24.936Z,49.50
2023-03-19T01:38:41.891Z,49.35
2023-03-19T01:41:59.668Z,51.57
2023-03-19T01:45:43.695Z,50.30
2023-03-19T01:49:19.631Z,52.28
2023-03-19T01:52:41.075Z,57.33
2023-03-19T01:56:01.147Z,49.45
2023-03-19T01:59:23.171Z,49.93
2023-03-19T02:03:02.377Z,46.38
2023-03-19T02:06:35.746Z,45.98
2023-03-19T02:09:52.808Z,45.93
2023-03-19T02:13:09.516Z,43.53
2023-03-19T02:16:25.914Z,45.20
2023-03-19T02:19:49.306Z,49.20
2023-03-19T02:23:14.104Z,48.05
2023-03-19T02:26:33.898Z,47.48
2023-03-19T02:29:51.094Z,49.43
2023-03-19T02:33:08.605Z,48.55
2023-03-19T02:36:27.274Z,47.03
2023-03-19T02:39:54.070Z,51.97
2023-03-19T02:43:10.172Z,49.80
2023-03-19T02:46:26.386Z,49.03
2023-03-19T02:49:43.466Z,49.58
2023-03-19T02:52:59.807Z,53.65
2023-03-19T02:56:16.700Z,51.83
2023-03-19T02:59:33.014Z,49.03
2023-03-19T03:02:50.243Z,57.85
2023-03-19T03:06:06.907Z,56.18
2023-03-19T03:09:23.345Z,57.10
2023-03-19T03:12:39.803Z,54.10
2023-03-19T03:15:56.406Z,59.58
2023-03-19T03:19:12.688Z,57.60
2023-03-19T03:22:30.176Z,56.68
2023-03-19T03:25:47.323Z,62.30
2023-03-19T03:29:05.802Z,56.78
2023-03-19T03:32:22.584Z,60.80
2023-03-19T03:35:38.820Z,61.25
2023-03-19T03:38:55.170Z,61.48
2023-03-19T03:42:11.790Z,62.78
2023-03-19T03:45:28.647Z,64.08
2023-03-19T03:48:45.364Z,64.75
2023-03-19T03:52:01.589Z,62.80
2023-03-19T03:55:18.936Z,64.15
2023-03-19T03:58:40.477Z,65.05
2023-03-19T04:01:56.525Z,61.98
2023-03-19T04:05:13.942Z,65.78
2023-03-19T04:08:30.157Z,66.68
2023-03-19T04:11:46.817Z,62.20
2023-03-19T04:15:02.875Z,59.50
2023-03-19T04:18:19.802Z,66.18
2023-03-19T04:21:36.116Z,62.10
2023-03-19T04:24:52.314Z,65.78
2023-03-19T04:28:09.860Z,70.80
2023-03-19T04:31:26.009Z,71.53
2023-03-19T04:34:42.654Z,65.20
2023-03-19T04:37:58.775Z,70.53
2023-03-19T04:41:16.742Z,78.58
2023-03-19T04:44:34.498Z,76.43
2023-03-19T04:47:52.258Z,68.45
2023-03-19T04:51:09.597Z,68.13
2023-03-19T04:54:26.301Z,70.63
2023-03-19T04:57:42.520Z,85.65
2023-03-19T05:00:58.721Z,69.25
2023-03-19T05:04:17.107Z,74.70
2023-03-19T05:07:34.323Z,75.15
2023-03-19T05:10:51.252Z,69.85
2023-03-19T05:14:08.175Z,72.50
2023-03-19T05:17:38.875Z,77.25
2023-03-19T05:21:10.094Z,76.78
2023-03-19T05:24:26.641Z,70.90
2023-03-19T05:27:43.879Z,74.63
2023-03-19T05:31:01.830Z,76.15
2023-03-19T05:34:19.772Z,73.20
2023-03-19T05:37:36.177Z,70.75
2023-03-19T05:40:53.123Z,76.78
2023-03-19T05:44:14.322Z,73.55
2023-03-19T05:47:35.946Z,73.50
2023-03-19T05:50:53.418Z,74.90
2023-03-19T05:54:11.635Z,77.38
2023-03-19T05:57:35.814Z,75.20
2023-03-19T06:00:54.571Z,76.33
2023-03-19T06:04:11.197Z,75.75
2023-03-19T06:07:27.879Z,80.90
2023-03-19T06:10:45.548Z,81.35
2023-03-19T06:14:01.974Z,79.20
2023-03-19T06:17:20.137Z,80.55
2023-03-19T06:20:36.722Z,85.10
2023-03-19T06:23:53.458Z,78.18
2023-03-19T06:27:14.501Z,81.43
2023-03-19T06:33:47.365Z,85.85
2023-03-19T06:37:04.108Z,80.13
2023-03-19T06:40:22.283Z,84.55
2023-03-19T06:43:38.486Z,79.13
2023-03-19T06:46:55.140Z,80.20
2023-03-19T06:50:13.154Z,79.55
2023-03-19T06:53:29.286Z,81.53
2023-03-19T06:56:46.691Z,84.25
2023-03-19T07:00:03.447Z,82.72
2023-03-19T07:03:21.410Z,83.70
2023-03-19T07:06:38.995Z,78.73
2023-03-19T07:09:55.257Z,77.23
2023-03-19T07:13:12.163Z,71.95
2023-03-19T07:16:28.607Z,69.25
2023-03-19T07:19:45.094Z,66.70
2023-03-19T07:23:02.216Z,58.25
2023-03-19T07:26:19.105Z,62.78
2023-03-19T07:29:35.163Z,63.98
2023-03-19T07:32:51.850Z,66.10
2023-03-19T07:36:08.174Z,57.98
2023-03-19T07:39:25.123Z,65.50
2023-03-19T07:42:42.820Z,61.63
2023-03-19T07:46:03.691Z,62.05
2023-03-19T07:49:20.230Z,56.98
2023-03-19T07:52:37.068Z,55.60
2023-03-19T07:55:54.351Z,57.78
2023-03-19T07:59:10.530Z,55.28
2023-03-19T08:02:27.133Z,60.08
2023-03-19T08:05:43.591Z,56.43
2023-03-19T08:08:59.714Z,53.40
2023-03-19T08:12:17.610Z,59.53
2023-03-19T08:15:33.736Z,49.98
2023-03-19T08:18:51.313Z,57.53
2023-03-19T08:22:08.103Z,51.43
2023-03-19T08:25:24.926Z,52.00
2023-03-19T08:28:41.404Z,51.55
2023-03-19T08:31:59.528Z,52.30
2023-03-19T08:35:17.189Z,45.53
2023-03-19T08:38:33.251Z,47.45
2023-03-19T08:41:49.381Z,46.10
2023-03-19T08:45:05.681Z,47.60
2023-03-19T08:48:22.667Z,42.00
2023-03-19T08:51:39.132Z,41.60
2023-03-19T08:54:55.819Z,37.75
2023-03-19T08:58:12.143Z,42.68
2023-03-19T09:01:29.077Z,39.00
2023-03-19T09:04:47.845Z,73.45
2023-03-19T09:08:18.037Z,43.48
2023-03-19T09:11:35.212Z,25.28
2023-03-19T09:14:52.637Z,33.40
2023-03-19T09:18:08.793Z,27.35
2023-03-19T09:21:25.318Z,27.05
2023-03-19T09:24:41.953Z,24.38
2023-03-19T09:27:58.411Z,24.30
2023-03-19T09:31:16.767Z,22.33
2023-03-19T09:34:34.164Z,17.33
2023-03-19T09:37:52.007Z,20.78
2023-03-19T09:41:19.741Z,18.63
2023-03-19T09:44:44.906Z,20.03
2023-03-19T09:48:06.986Z,18.58
2023-03-19T09:51:27.923Z,15.80
2023-03-19T09:54:49.157Z,15.60
2023-03-19T09:58:07.466Z,14.50
2023-03-19T10:01:34.554Z,16.27
2023-03-19T10:05:05.659Z,16.73
2023-03-19T10:08:55.216Z,15.00
2023-03-19T10:12:28.296Z,16.13
2023-03-19T10:15:47.015Z,13.48
2023-03-19T10:19:07.241Z,12.35
2023-03-19T10:22:27.934Z,13.35
2023-03-19T10:25:50.452Z,10.63
2023-03-19T10:29:12.513Z,13.50
2023-03-19T10:32:36.523Z,11.70
2023-03-19T10:35:56.837Z,11.38
2023-03-19T10:39:15.336Z,10.05
2023-03-19T10:43:01.932Z,9.05
2023-03-19T10:46:22.650Z,7.40
2023-03-19T10:49:40.525Z,8.33
2023-03-19T10:53:01.856Z,5.78
2023-03-19T10:56:30.339Z,7.13
2023-03-19T10:59:48.307Z,10.23
2023-03-19T11:03:06.263Z,7.75
2023-03-19T11:06:31.924Z,5.60
2023-03-19T11:09:51.080Z,5.60
2023-03-19T11:16:22.346Z,4.83
2023-03-19T11:19:43.377Z,6.80
2023-03-19T11:23:02.136Z,7.10
2023-03-19T11:26:19.967Z,6.48
2023-03-19T11:29:37.841Z,103.68
2023-03-19T11:33:17.247Z,8.40
2023-03-19T11:36:37.338Z,8.08
2023-03-19T11:39:59.495Z,6.03
2023-03-19T11:43:47.016Z,5.93
2023-03-19T11:47:24.607Z,7.28
2023-03-19T11:50:36.298Z,7.88
2023-03-19T11:54:03.548Z,5.93
2023-03-19T11:57:26.361Z,106.83
2023-03-19T12:00:48.272Z,12.63
2023-03-19T12:04:42.021Z,6.73
2023-03-19T12:08:23.261Z,5.80
2023-03-19T12:11:45.938Z,5.70
2023-03-19T12:15:17.129Z,5.63
2023-03-19T12:18:47.699Z,6.48
2023-03-19T12:22:13.329Z,6.93
2023-03-19T12:28:52.575Z,7.10
2023-03-19T12:32:48.166Z,7.70
2023-03-19T12:36:06.561Z,6.53
2023-03-19T12:39:26.158Z,6.73
2023-03-19T12:42:47.446Z,5.75
2023-03-19T12:46:07.833Z,6.33
2023-03-19T12:49:37.226Z,7.13
2023-03-19T12:53:02.324Z,6.08
2023-03-19T12:56:27.600Z,7.45
2023-03-19T12:59:49.579Z,7.83
2023-03-19T13:03:11.168Z,8.58
2023-03-19T13:06:33.015Z,7.60
2023-03-19T13:09:55.559Z,7.23
2023-03-19T13:17:14.826Z,8.03
2023-03-19T13:21:04.987Z,8.18
2023-03-19T13:24:41.240Z,8.65
2023-03-19T13:28:03.880Z,7.03
2023-03-19T13:31:51.699Z,6.73
2023-03-19T13:44:48.988Z,7.05
2023-03-19T13:48:24.763Z,14.60
2023-03-19T13:51:43.702Z,7.95
2023-03-19T13:55:04.392Z,7.17
2023-03-19T13:58:43.532Z,8.00
2023-03-19T14:09:43.614Z,9.05
2023-03-19T14:13:10.053Z,6.55
2023-03-19T14:16:35.261Z,5.83
2023-03-19T14:19:52.443Z,7.25
2023-03-19T14:23:42.717Z,6.25
2023-03-19T14:27:01.301Z,7.93
2023-03-19T14:30:42.745Z,8.70
2023-03-19T14:34:24.836Z,7.13
2023-03-19T14:37:51.690Z,7.53
2023-03-19T14:41:11.317Z,7.20
2023-03-19T14:45:37.547Z,6.65
2023-03-19T14:49:35.947Z,6.43
2023-03-19T14:53:08.850Z,6.60
2023-03-19T14:56:31.426Z,6.43
2023-03-19T14:59:51.038Z,6.33
2023-03-19T15:03:09.382Z,6.43
2023-03-19T15:06:26.724Z,5.80
2023-03-19T15:09:43.630Z,18.58
2023-03-19T15:13:35.370Z,8.88
2023-03-19T15:16:59.665Z,6.45
2023-03-19T15:20:27.214Z,17.83
2023-03-19T15:23:45.934Z,6.08
2023-03-19T15:27:03.445Z,18.90
2023-03-19T15:30:40.113Z,8.35
2023-03-19T15:33:52.304Z,5.40
2023-03-19T15:37:16.138Z,6.65
2023-03-19T15:40:35.796Z,6.23
2023-03-19T15:43:53.274Z,5.80
2023-03-19T15:47:13.251Z,7.60
2023-03-19T15:50:35.594Z,7.30
2023-03-19T15:59:03.774Z,6.88
2023-03-19T16:02:30.958Z,6.85
2023-03-19T16:05:47.973Z,8.33
2023-03-19T16:09:19.531Z,7.20
2023-03-19T16:12:58.070Z,6.98
2023-03-19T16:16:21.207Z,13.70
2023-03-19T16:19:43.176Z,10.15
2023-03-19T16:23:05.411Z,11.00
2023-03-19T16:26:41.997Z,9.15
2023-03-19T16:30:07.091Z,7.40
2023-03-19T16:33:25.071Z,7.85
2023-03-19T16:36:42.549Z,9.43
2023-03-19T16:40:06.462Z,11.08
2023-03-19T16:43:33.125Z,11.05
2023-03-19T16:46:50.219Z,10.33
2023-03-19T16:50:06.712Z,10.43
2023-03-19T16:53:33.275Z,11.70
2023-03-19T16:56:50.051Z,11.73
2023-03-19T17:00:09.454Z,9.48
2023-03-19T17:03:27.457Z,11.28
2023-03-19T17:06:44.560Z,11.45
2023-03-19T17:10:01.797Z,10.85
2023-03-19T17:13:28.880Z,12.20
2023-03-19T17:16:48.510Z,9.63
2023-03-19T17:20:07.204Z,12.35
2023-03-19T17:23:26.294Z,14.50
2023-03-19T17:26:42.597Z,12.28
2023-03-19T17:29:59.023Z,14.90
2023-03-19T17:33:21.138Z,14.40
2023-03-19T17:36:38.513Z,12.90
2023-03-19T17:43:14.102Z,17.45
2023-03-19T17:46:34.610Z,12.73
2023-03-19T17:49:51.772Z,15.08
2023-03-19T17:53:08.283Z,21.05
2023-03-19T17:59:40.309Z,18.98
2023-03-19T18:02:59.171Z,17.63
2023-03-19T18:06:21.716Z,19.88
2023-03-19T18:14:09.905Z,21.03
2023-03-19T18:17:28.347Z,20.63
2023-03-19T18:20:48.202Z,24.68
2023-03-19T18:24:05.597Z,21.00
2023-03-19T18:27:23.853Z,21.40
2023-03-19T18:30:43.204Z,25.48
2023-03-19T18:34:04.573Z,20.03
2023-03-19T18:37:24.788Z,24.20
2023-03-19T18:43:58.528Z,22.48
2023-03-19T18:47:20.128Z,22.08
2023-03-19T18:50:38.811Z,23.73
2023-03-19T18:53:55.357Z,28.38
2023-03-19T18:57:13.089Z,27.65
2023-03-19T19:00:33.057Z,23.70
2023-03-19T19:03:50.587Z,25.60
2023-03-19T19:07:07.866Z,25.20
2023-03-19T19:13:55.384Z,27.75
2023-03-19T19:17:03.920Z,23.58
2023-03-19T19:20:26.653Z,26.53
2023-03-19T19:23:43.515Z,28.68
2023-03-19T19:30:23.963Z,27.18
2023-03-19T19:33:43.179Z,21.98
2023-03-19T19:37:01.106Z,25.10
2023-03-19T19:40:23.369Z,30.18
2023-03-19T19:43:40.879Z,21.73
2023-03-19T19:46:59.072Z,20.93
2023-03-19T19:50:24.098Z,26.95
2023-03-19T19:53:45.324Z,26.93
2023-03-19T19:57:08.333Z,26.48
2023-03-19T20:00:35.424Z,22.18
2023-03-19T20:03:53.137Z,22.50
2023-03-19T20:07:17.754Z,31.90
2023-03-19T20:13:55.269Z,22.83
2023-03-19T20:17:12.398Z,26.88
2023-03-19T20:20:33.187Z,25.53
2023-03-19T20:23:53.211Z,26.15
2023-03-19T20:27:10.062Z,26.43
2023-03-19T20:30:36.214Z,31.28
2023-03-19T20:33:52.502Z,23.33
2023-03-19T20:37:08.612Z,27.68
2023-03-19T20:43:34.863Z,24.45
2023-03-19T20:46:51.511Z,28.13
2023-03-19T20:50:11.506Z,23.73
2023-03-19T20:53:29.408Z,21.88
2023-03-19T20:56:48.787Z,21.85
2023-03-19T21:03:27.896Z,23.55
2023-03-19T21:06:53.014Z,27.98
2023-03-19T21:10:04.168Z,30.93
2023-03-19T21:13:24.568Z,28.08
2023-03-19T21:16:40.895Z,27.78
2023-03-19T21:19:57.346Z,24.70
2023-03-19T21:23:23.964Z,24.73
2023-03-19T21:26:42.794Z,24.25
2023-03-19T21:30:00.963Z,25.58
2023-03-19T21:33:32.432Z,28.40
2023-03-19T21:36:48.674Z,29.48
2023-03-19T21:40:04.755Z,29.03
2023-03-19T21:43:26.663Z,26.63
2023-03-19T21:46:43.545Z,30.60
2023-03-19T21:50:01.157Z,30.40
2023-03-19T21:53:18.268Z,26.33
2023-03-19T21:56:36.852Z,27.20
2023-03-19T21:59:54.147Z,31.07
2023-03-19T22:03:10.267Z,26.75
2023-03-19T22:06:27.347Z,27.75
2023-03-19T22:09:43.467Z,27.83
2023-03-19T22:13:00.654Z,24.35
2023-03-19T22:16:24.645Z,30.33
2023-03-19T22:19:42.210Z,27.50
2023-03-19T22:22:59.670Z,26.68
2023-03-19T22:26:34.240Z,26.50
2023-03-19T22:29:51.351Z,29.25
2023-03-19T22:33:08.802Z,28.93
2023-03-19T22:36:25.164Z,28.78
2023-03-19T22:39:41.204Z,32.95
2023-03-19T22:42:58.576Z,29.95
2023-03-19T22:46:19.224Z,29.63
2023-03-19T22:49:36.560Z,27.65
2023-03-19T22:52:53.060Z,27.73
2023-03-19T22:56:12.249Z,28.15
2023-03-19T22:59:31.166Z,27.85
2023-03-19T23:02:49.941Z,26.68
2023-03-19T23:06:16.991Z,29.95
2023-03-19T23:09:32.503Z,27.43
2023-03-19T23:12:48.711Z,31.78
2023-03-19T23:16:07.611Z,27.30
2023-03-19T23:19:30.138Z,26.85
2023-03-19T23:22:48.398Z,28.40
2023-03-19T23:26:05.481Z,25.20
2023-03-19T23:29:27.766Z,25.45
2023-03-19T23:32:44.581Z,26.43
2023-03-19T23:36:03.533Z,25.50
2023-03-19T23:39:20.421Z,31.48
2023-03-19T23:42:40.154Z,30.38
2023-03-19T23:45:59.049Z,30.50
2023-03-19T23:49:19.537Z,31.08
2023-03-19T23:52:35.775Z,32.53
2023-03-19T23:55:54.247Z,32.63
2023-03-19T23:59:10.285Z,35.85
